createdAt,value
2022-10-17T00:00:34.442Z,570.4
2022-10-17T00:02:13.181Z,566.7
2022-10-17T00:03:51.995Z,566
2022-10-17T00:05:30.647Z,571.2
2022-10-17T00:07:09.379Z,569.6
2022-10-17T00:08:48.122Z,566.9
2022-10-17T00:10:26.871Z,564.4
2022-10-17T00:12:05.635Z,565.9
2022-10-17T00:13:44.412Z,570.6
2022-10-17T00:14:51.607Z,575.2
2022-10-17T00:17:52.368Z,569.3
2022-10-17T00:21:08.011Z,569.5
2022-10-17T00:22:14.565Z,568.9
2022-10-17T00:23:21.119Z,570
2022-10-17T00:24:27.678Z,567.7
2022-10-17T00:25:34.230Z,569.2
2022-10-17T00:26:40.812Z,569.2
2022-10-17T00:27:47.364Z,570
2022-10-17T00:28:53.906Z,569.2
2022-10-17T00:30:00.489Z,566.9
2022-10-17T00:31:07.017Z,568.6
2022-10-17T00:32:13.644Z,568.5
2022-10-17T00:33:20.120Z,569.6
2022-10-17T00:34:26.687Z,571.4
2022-10-17T00:35:33.224Z,566.1
2022-10-17T00:36:39.787Z,570
2022-10-17T00:37:46.381Z,563.4
2022-10-17T00:38:52.889Z,565.9
2022-10-17T00:39:59.445Z,570
2022-10-17T00:41:06.012Z,567.4
2022-10-17T00:42:12.544Z,569.1
2022-10-17T00:43:19.090Z,568.3
2022-10-17T00:44:25.652Z,568.6
2022-10-17T00:45:32.206Z,570.3
2022-10-17T00:46:38.765Z,570.3
2022-10-17T00:47:45.310Z,568.1
2022-10-17T00:48:52.103Z,566.2
2022-10-17T00:49:58.923Z,567.3
2022-10-17T00:51:05.697Z,569.8
2022-10-17T00:52:12.505Z,570.6
2022-10-17T00:53:19.362Z,568.2
2022-10-17T00:54:26.071Z,571.3
2022-10-17T00:55:32.872Z,570.3
2022-10-17T00:56:39.659Z,568.8
2022-10-17T00:57:46.448Z,566.4
2022-10-17T00:58:53.248Z,567.4
2022-10-17T01:00:00.053Z,569.4
2022-10-17T01:01:06.870Z,565.6
2022-10-17T01:02:13.660Z,570.2
2022-10-17T01:03:20.954Z,567.2
2022-10-17T01:04:59.648Z,568.5
2022-10-17T01:06:38.383Z,568.9
2022-10-17T01:08:17.124Z,565.6
2022-10-17T01:09:55.889Z,565.5
2022-10-17T01:11:34.605Z,563.7
2022-10-17T01:13:13.341Z,564
2022-10-17T01:14:52.073Z,567.7
2022-10-17T01:16:30.808Z,566.3
2022-10-17T01:18:09.559Z,566.4
2022-10-17T01:19:48.287Z,566.4
2022-10-17T01:21:27.023Z,568.7
2022-10-17T01:23:05.752Z,567.1
2022-10-17T01:27:13.762Z,565.9
2022-10-17T01:28:20.377Z,568.7
2022-10-17T01:30:29.436Z,572.6
2022-10-17T01:31:36.034Z,570.5
2022-10-17T01:32:42.533Z,567.7
2022-10-17T01:33:49.111Z,565
2022-10-17T01:34:55.633Z,568.6
2022-10-17T01:36:02.176Z,569
2022-10-17T01:37:08.747Z,570.8
2022-10-17T01:38:15.328Z,563.8
2022-10-17T01:39:21.853Z,569
2022-10-17T01:40:28.429Z,567.5
2022-10-17T01:41:34.914Z,565.2
2022-10-17T01:42:41.478Z,566.1
2022-10-17T01:43:48.042Z,565.6
2022-10-17T01:44:54.655Z,567.4
2022-10-17T01:46:01.190Z,567.1
2022-10-17T01:47:07.706Z,566.9
2022-10-17T01:48:14.248Z,565.1
2022-10-17T01:49:20.811Z,567.7
2022-10-17T01:50:27.334Z,566.7
2022-10-17T01:51:33.888Z,567.3
2022-10-17T01:52:40.454Z,567
2022-10-17T01:53:47.029Z,565.6
2022-10-17T01:54:53.566Z,564.6
2022-10-17T01:56:00.123Z,569.4
2022-10-17T01:57:06.905Z,565
2022-10-17T01:58:13.684Z,567.1
2022-10-17T01:59:20.505Z,564.4
2022-10-17T02:00:27.267Z,570.9
2022-10-17T02:01:34.052Z,567.9
2022-10-17T02:02:40.853Z,569
2022-10-17T02:03:47.649Z,566.3
2022-10-17T02:04:54.504Z,568
2022-10-17T02:06:01.230Z,566.4
2022-10-17T02:07:08.025Z,569.6
2022-10-17T02:08:14.843Z,573.7
2022-10-17T02:09:21.611Z,568.9
2022-10-17T02:10:28.406Z,566.9
2022-10-17T02:13:07.035Z,568.1
2022-10-17T02:14:45.759Z,569.7
2022-10-17T02:16:24.489Z,564.7
2022-10-17T02:18:03.221Z,571.1
2022-10-17T02:19:10.505Z,569.8
2022-10-17T02:20:17.754Z,569.9
2022-10-17T02:21:56.481Z,569.8
2022-10-17T02:23:35.221Z,569.6
2022-10-17T02:25:13.989Z,569.2
2022-10-17T02:26:52.710Z,567.8
2022-10-17T02:28:31.393Z,570.3
2022-10-17T02:30:10.145Z,564.8
2022-10-17T02:31:48.854Z,571.2
2022-10-17T02:35:38.587Z,572.4
2022-10-17T02:36:45.002Z,570.4
2022-10-17T02:37:51.445Z,572.6
2022-10-17T02:38:57.881Z,570.3
2022-10-17T02:40:04.323Z,568.9
2022-10-17T02:41:10.755Z,570.8
2022-10-17T02:42:17.252Z,570.8
2022-10-17T02:43:23.642Z,571.1
2022-10-17T02:44:30.067Z,573.3
2022-10-17T02:45:36.490Z,574.6
2022-10-17T02:46:42.930Z,573.4
2022-10-17T02:47:49.415Z,578.8
2022-10-17T02:48:55.900Z,572.9
2022-10-17T02:50:02.234Z,571.3
2022-10-17T02:51:08.678Z,572
2022-10-17T02:52:15.110Z,567.3
2022-10-17T02:53:21.591Z,571.5
2022-10-17T02:54:27.987Z,572.9
2022-10-17T02:55:34.420Z,572.3
2022-10-17T02:56:40.907Z,569.6
2022-10-17T02:57:47.298Z,568.3
2022-10-17T02:58:53.733Z,572.5
2022-10-17T03:00:00.168Z,569.8
2022-10-17T03:01:06.629Z,575.4
2022-10-17T03:02:13.045Z,570.8
2022-10-17T03:03:19.485Z,570.6
2022-10-17T03:04:26.056Z,572.6
2022-10-17T03:05:32.610Z,571.4
2022-10-17T03:06:39.168Z,573.8
2022-10-17T03:07:45.717Z,573.7
2022-10-17T03:08:52.276Z,574.6
2022-10-17T03:09:58.833Z,573
2022-10-17T03:11:05.386Z,569.4
2022-10-17T03:12:11.944Z,574.4
2022-10-17T03:13:18.497Z,572.4
2022-10-17T03:14:25.051Z,572.1
2022-10-17T03:15:31.612Z,571.6
2022-10-17T03:16:38.181Z,571.5
2022-10-17T03:17:44.717Z,571.3
2022-10-17T03:19:34.020Z,573.3
2022-10-17T03:20:40.822Z,577.2
2022-10-17T03:21:47.617Z,579.4
2022-10-17T03:22:54.449Z,576.5
2022-10-17T03:24:01.196Z,576.3
2022-10-17T03:25:07.983Z,577.4
2022-10-17T03:26:14.784Z,574.5
2022-10-17T03:27:21.611Z,570.9
2022-10-17T03:28:28.362Z,577
2022-10-17T03:29:35.161Z,576.7
2022-10-17T03:30:41.951Z,576.3
2022-10-17T03:31:48.754Z,576
2022-10-17T03:32:55.543Z,575.9
2022-10-17T03:36:13.646Z,577.9
2022-10-17T03:37:49.203Z,578.6
2022-10-17T03:38:56.438Z,572.4
2022-10-17T03:40:35.178Z,580.3
2022-10-17T03:42:13.949Z,569.3
2022-10-17T03:43:52.648Z,576.1
2022-10-17T03:45:31.381Z,574.9
2022-10-17T03:47:10.122Z,580.4
2022-10-17T03:48:48.855Z,576.8
2022-10-17T03:50:27.598Z,572.3
2022-10-17T03:52:06.331Z,578.7
2022-10-17T03:53:45.111Z,575.6
2022-10-17T03:54:52.366Z,570.6
2022-10-17T03:57:53.132Z,579
2022-10-17T04:01:08.796Z,574.3
2022-10-17T04:02:15.314Z,574.5
2022-10-17T04:03:21.897Z,572.6
2022-10-17T04:04:28.458Z,574.4
2022-10-17T04:05:34.986Z,574.1
2022-10-17T04:06:41.567Z,572.4
2022-10-17T04:07:48.128Z,574.3
2022-10-17T04:08:54.644Z,571.4
2022-10-17T04:10:01.231Z,575.1
2022-10-17T04:11:07.754Z,573
2022-10-17T04:12:14.312Z,576.6
2022-10-17T04:13:20.866Z,574
2022-10-17T04:14:27.415Z,571.4
2022-10-17T04:15:33.975Z,570.3
2022-10-17T04:16:40.552Z,575.8
2022-10-17T04:17:47.124Z,572.5
2022-10-17T04:18:53.644Z,571.9
2022-10-17T04:20:00.230Z,576
2022-10-17T04:21:06.752Z,577.5
2022-10-17T04:22:13.309Z,576
2022-10-17T04:23:19.890Z,575.5
2022-10-17T04:24:26.425Z,573.9
2022-10-17T04:25:32.974Z,572.5
2022-10-17T04:26:39.526Z,572.4
2022-10-17T04:27:46.142Z,572.9
2022-10-17T04:28:52.870Z,575.8
2022-10-17T04:29:59.674Z,573.7
2022-10-17T04:31:06.474Z,575.6
2022-10-17T04:32:13.278Z,576.5
2022-10-17T04:33:20.039Z,573.9
2022-10-17T04:34:26.831Z,574.9
2022-10-17T04:35:33.631Z,578.2
2022-10-17T04:36:40.431Z,574.8
2022-10-17T04:37:47.216Z,573.5
2022-10-17T04:38:54.057Z,575.8
2022-10-17T04:40:00.798Z,574.4
2022-10-17T04:41:07.595Z,574.7
2022-10-17T04:42:14.411Z,576.6
2022-10-17T04:43:21.691Z,577.8
2022-10-17T04:45:00.433Z,576.1
2022-10-17T04:46:39.177Z,576.3
2022-10-17T04:48:17.907Z,578.2
2022-10-17T04:49:56.650Z,577.7
2022-10-17T04:51:35.388Z,578.3
2022-10-17T04:53:14.129Z,577.9
2022-10-17T04:54:52.886Z,578.3
2022-10-17T04:56:31.613Z,574.2
2022-10-17T04:58:10.349Z,579
2022-10-17T04:59:49.103Z,574.6
2022-10-17T05:01:27.828Z,576.1
2022-10-17T05:03:06.585Z,576.5
2022-10-17T05:07:14.572Z,575.2
2022-10-17T05:08:21.255Z,578.6
2022-10-17T05:10:30.267Z,577
2022-10-17T05:11:36.872Z,575
2022-10-17T05:12:43.374Z,576.4
2022-10-17T05:13:49.987Z,572.8
2022-10-17T05:14:56.477Z,575.1
2022-10-17T05:16:03.039Z,575.7
2022-10-17T05:17:09.591Z,571.8
2022-10-17T05:18:16.177Z,576.5
2022-10-17T05:19:22.690Z,579.1
2022-10-17T05:20:29.235Z,576.3
2022-10-17T05:21:35.798Z,576.7
2022-10-17T05:22:42.358Z,573.7
2022-10-17T05:23:48.900Z,578.1
2022-10-17T05:24:55.459Z,575.3
2022-10-17T05:26:02.014Z,580.2
2022-10-17T05:27:08.565Z,577.8
2022-10-17T05:28:15.122Z,572.3
2022-10-17T05:29:21.692Z,578.3
2022-10-17T05:30:28.223Z,578.4
2022-10-17T05:31:34.784Z,576.6
2022-10-17T05:32:41.343Z,575.6
2022-10-17T05:33:47.911Z,572.7
2022-10-17T05:36:01.010Z,576.1
2022-10-17T05:37:07.793Z,574.8
2022-10-17T05:38:14.584Z,576.5
2022-10-17T05:39:21.397Z,577.4
2022-10-17T05:40:28.176Z,579.3
2022-10-17T05:41:34.954Z,579.4
2022-10-17T05:42:41.748Z,577.2
2022-10-17T05:43:48.551Z,579.2
2022-10-17T05:44:55.326Z,577.2
2022-10-17T05:46:02.163Z,577.5
2022-10-17T05:47:08.943Z,580.7
2022-10-17T05:48:15.703Z,577.7
2022-10-17T05:49:22.503Z,579.6
2022-10-17T05:50:29.390Z,580
2022-10-17T05:53:08.929Z,576.1
2022-10-17T05:54:47.666Z,579.8
2022-10-17T05:56:26.346Z,580.6
2022-10-17T05:58:05.051Z,581.3
2022-10-17T05:59:12.332Z,577.3
2022-10-17T06:00:19.516Z,579.6
2022-10-17T06:01:58.309Z,581.9
2022-10-17T06:03:36.991Z,576.6
2022-10-17T06:05:15.771Z,579.7
2022-10-17T06:06:54.556Z,581.2
2022-10-17T06:08:33.237Z,581.6
2022-10-17T06:10:11.967Z,577.9
2022-10-17T06:11:50.676Z,580.4
2022-10-17T06:15:40.277Z,579.8
2022-10-17T06:16:46.772Z,576.9
2022-10-17T06:17:53.230Z,582
2022-10-17T06:18:59.637Z,578.2
2022-10-17T06:20:06.109Z,575.9
2022-10-17T06:21:12.529Z,579.8
2022-10-17T06:22:19.012Z,579.7
2022-10-17T06:23:25.439Z,579.1
2022-10-17T06:24:31.834Z,578.5
2022-10-17T06:25:38.241Z,580.5
2022-10-17T06:26:44.741Z,582.8
2022-10-17T06:27:51.129Z,579.9
2022-10-17T06:28:57.511Z,581.7
2022-10-17T06:30:03.993Z,578.4
2022-10-17T06:31:10.392Z,580.1
2022-10-17T06:32:16.883Z,578.9
2022-10-17T06:33:23.252Z,581
2022-10-17T06:34:29.687Z,583.1
2022-10-17T06:35:36.116Z,575.1
2022-10-17T06:36:42.559Z,580.8
2022-10-17T06:37:48.996Z,580.3
2022-10-17T06:38:55.425Z,576.7
2022-10-17T06:40:01.865Z,577.6
2022-10-17T06:41:08.292Z,583.7
2022-10-17T06:42:14.811Z,580.2
2022-10-17T06:44:27.746Z,581.7
2022-10-17T06:45:34.287Z,582.6
2022-10-17T06:46:40.832Z,577.8
2022-10-17T06:47:47.404Z,578.8
2022-10-17T06:48:53.985Z,580.2
2022-10-17T06:50:00.490Z,581.3
2022-10-17T06:51:07.075Z,584.3
2022-10-17T06:52:13.671Z,582
2022-10-17T06:53:20.174Z,580.2
2022-10-17T06:54:26.696Z,582.4
2022-10-17T06:55:33.253Z,580.5
2022-10-17T06:56:39.785Z,582.5
2022-10-17T06:57:46.341Z,585.1
2022-10-17T06:59:35.630Z,586.5
2022-10-17T07:00:42.426Z,584.2
2022-10-17T07:01:49.277Z,583
2022-10-17T07:02:56.002Z,583.9
2022-10-17T07:04:02.796Z,582.7
2022-10-17T07:05:09.631Z,587.5
2022-10-17T07:06:16.424Z,586
2022-10-17T07:07:23.177Z,586.5
2022-10-17T07:08:29.968Z,585.2
2022-10-17T07:09:36.774Z,585.3
2022-10-17T07:10:43.533Z,588.5
2022-10-17T07:11:50.377Z,585.6
2022-10-17T07:12:57.117Z,584.8
2022-10-17T07:16:15.222Z,587.7
2022-10-17T07:17:50.746Z,585.8
2022-10-17T07:18:58.131Z,589.4
2022-10-17T07:20:36.766Z,589
2022-10-17T07:22:15.503Z,589.5
2022-10-17T07:23:54.201Z,586.4
2022-10-17T07:25:32.928Z,587.7
2022-10-17T07:27:11.662Z,590.6
2022-10-17T07:28:50.389Z,589.5
2022-10-17T07:30:29.130Z,590.6
2022-10-17T07:32:07.858Z,590.6
2022-10-17T07:33:46.589Z,593.1
2022-10-17T07:34:53.855Z,592.9
2022-10-17T07:37:54.646Z,590.9
2022-10-17T07:41:10.342Z,590.4
2022-10-17T07:42:16.934Z,592.5
2022-10-17T07:43:23.445Z,592
2022-10-17T07:44:29.974Z,593.5
2022-10-17T07:45:36.545Z,596.2
2022-10-17T07:46:43.081Z,594.7
2022-10-17T07:47:49.655Z,592.9
2022-10-17T07:48:56.189Z,595.3
2022-10-17T07:50:02.730Z,593.1
2022-10-17T07:51:09.287Z,594.5
2022-10-17T07:52:15.835Z,597.1
2022-10-17T07:53:22.430Z,594.5
2022-10-17T07:54:28.969Z,595.9
2022-10-17T07:55:35.492Z,593.9
2022-10-17T07:56:42.050Z,596.6
2022-10-17T07:57:48.605Z,597.4
2022-10-17T07:58:55.154Z,595.4
2022-10-17T08:00:01.709Z,598.6
2022-10-17T08:01:08.255Z,594.6
2022-10-17T08:02:14.805Z,594.5
2022-10-17T08:03:21.454Z,596.5
2022-10-17T08:04:27.910Z,596.8
2022-10-17T08:05:34.481Z,596.1
2022-10-17T08:06:41.040Z,597
2022-10-17T08:07:47.559Z,598.4
2022-10-17T08:08:54.351Z,595
2022-10-17T08:10:01.149Z,600.2
2022-10-17T08:11:08.005Z,597.2
2022-10-17T08:12:14.762Z,595.9
2022-10-17T08:13:21.525Z,598.4
2022-10-17T08:14:28.372Z,597.7
2022-10-17T08:15:35.099Z,600.4
2022-10-17T08:16:41.920Z,598.5
2022-10-17T08:17:48.680Z,596.2
2022-10-17T08:18:55.518Z,601.4
2022-10-17T08:20:02.267Z,598.8
2022-10-17T08:21:09.097Z,600.5
2022-10-17T08:22:15.899Z,599.4
2022-10-17T08:23:23.173Z,601.6
2022-10-17T08:25:01.882Z,601.4
2022-10-17T08:26:40.608Z,601.5
2022-10-17T08:28:19.359Z,600.3
2022-10-17T08:29:58.124Z,602.5
2022-10-17T08:31:36.805Z,599.9
2022-10-17T08:33:15.583Z,602.4
2022-10-17T08:34:54.254Z,601.8
2022-10-17T08:36:32.978Z,599.9
2022-10-17T08:38:11.720Z,601.4
2022-10-17T08:39:50.532Z,597.3
2022-10-17T08:41:29.179Z,601.3
2022-10-17T08:43:07.964Z,602
2022-10-17T08:47:15.944Z,603.6
2022-10-17T08:48:22.577Z,605.3
2022-10-17T08:50:31.456Z,604.1
2022-10-17T08:51:37.952Z,605.6
2022-10-17T08:52:44.346Z,605.7
2022-10-17T08:53:50.753Z,606.2
2022-10-17T08:54:57.177Z,605.2
2022-10-17T08:56:03.623Z,605.2
2022-10-17T08:57:10.048Z,605.7
2022-10-17T08:58:16.562Z,605.1
2022-10-17T08:59:22.917Z,606.2
2022-10-17T09:00:29.350Z,604.7
2022-10-17T09:01:35.795Z,603.7
2022-10-17T09:02:42.204Z,605.6
2022-10-17T09:03:48.666Z,607.4
2022-10-17T09:04:55.105Z,607.6
2022-10-17T09:06:01.544Z,607.7
2022-10-17T09:07:07.938Z,605.4
2022-10-17T09:08:14.368Z,606.7
2022-10-17T09:10:27.243Z,605.4
2022-10-17T09:11:33.702Z,605
2022-10-17T09:12:40.218Z,605.9
2022-10-17T09:13:46.623Z,606.4
2022-10-17T09:14:53.012Z,605.7
2022-10-17T09:15:59.413Z,604.5
2022-10-17T09:17:05.997Z,606.7
2022-10-17T09:18:12.534Z,606.7
2022-10-17T09:19:19.102Z,607.8
2022-10-17T09:20:25.617Z,606.6
2022-10-17T09:21:32.166Z,606.6
2022-10-17T09:22:38.716Z,608.3
2022-10-17T09:23:45.350Z,606.1
2022-10-17T09:24:51.885Z,606.3
2022-10-17T09:25:58.423Z,606.2
2022-10-17T09:27:04.956Z,607.2
2022-10-17T09:28:11.480Z,606.9
2022-10-17T09:29:18.069Z,609.5
2022-10-17T09:30:24.579Z,607.8
2022-10-17T09:31:57.440Z,605.9
2022-10-17T09:33:04.231Z,609.3
2022-10-17T09:34:11.085Z,608.1
2022-10-17T09:35:17.783Z,606.4
2022-10-17T09:36:24.647Z,607.9
2022-10-17T09:37:31.361Z,607.1
2022-10-17T09:38:38.138Z,607.7
2022-10-17T09:39:45.037Z,609.6
2022-10-17T09:40:51.876Z,607.4
2022-10-17T09:41:58.663Z,610.1
2022-10-17T09:43:05.392Z,610.4
2022-10-17T09:44:12.082Z,609.8
2022-10-17T09:45:18.981Z,609.9
2022-10-17T09:48:37.157Z,608.2
2022-10-17T09:50:15.747Z,608.2
2022-10-17T09:51:54.627Z,609.4
2022-10-17T09:53:01.883Z,609
2022-10-17T09:54:09.011Z,609.8
2022-10-17T09:55:47.729Z,609.9
2022-10-17T09:57:26.606Z,610.9
2022-10-17T09:59:05.313Z,609.3
2022-10-17T10:00:43.997Z,610.2
2022-10-17T10:02:22.731Z,613
2022-10-17T10:04:01.526Z,611.8
2022-10-17T10:05:40.252Z,610.4
2022-10-17T10:07:19.011Z,611.7
2022-10-17T10:09:29.929Z,612.9
2022-10-17T10:11:25.107Z,612.2
2022-10-17T10:12:31.586Z,612.1
2022-10-17T10:13:38.014Z,615.1
2022-10-17T10:14:44.461Z,614.1
2022-10-17T10:15:50.883Z,613.8
2022-10-17T10:16:57.336Z,613.6
2022-10-17T10:18:03.765Z,611.2
2022-10-17T10:19:10.197Z,614.8
2022-10-17T10:20:16.639Z,613.7
2022-10-17T10:21:23.071Z,613.4
2022-10-17T10:22:29.369Z,613.6
2022-10-17T10:23:35.948Z,612.2
2022-10-17T10:24:42.385Z,615
2022-10-17T10:25:48.817Z,612.5
2022-10-17T10:26:55.243Z,612.6
2022-10-17T10:28:01.693Z,613.7
2022-10-17T10:29:08.134Z,613.4
2022-10-17T10:30:14.560Z,612.8
2022-10-17T10:31:20.860Z,613.8
2022-10-17T10:32:27.403Z,612.8
2022-10-17T10:33:33.873Z,611.7
2022-10-17T10:34:40.303Z,613.1
2022-10-17T10:35:46.670Z,610.5
2022-10-17T10:36:53.188Z,612.1
2022-10-17T10:37:59.634Z,611.9
2022-10-17T10:39:06.052Z,612.2
2022-10-17T10:40:12.750Z,612.9
2022-10-17T10:41:19.301Z,612.7
2022-10-17T10:42:25.864Z,614.9
2022-10-17T10:43:32.415Z,612.8
2022-10-17T10:44:38.962Z,613.1
2022-10-17T10:45:45.525Z,612.6
2022-10-17T10:46:52.076Z,613.3
2022-10-17T10:47:58.487Z,610.7
2022-10-17T10:49:05.187Z,611.9
2022-10-17T10:50:11.749Z,612.5
2022-10-17T10:51:18.315Z,613.9
2022-10-17T10:52:24.871Z,611.4
2022-10-17T10:53:32.672Z,610.9
2022-10-17T10:54:39.454Z,612.3
2022-10-17T10:55:46.110Z,612.1
2022-10-17T10:56:52.927Z,611.4
2022-10-17T10:57:59.857Z,611.5
2022-10-17T10:59:06.635Z,611.2
2022-10-17T11:00:13.427Z,613
2022-10-17T11:01:20.203Z,613.4
2022-10-17T11:02:27.000Z,611.4
2022-10-17T11:03:33.893Z,611.8
2022-10-17T11:04:40.565Z,610.9
2022-10-17T11:05:47.253Z,613
2022-10-17T11:06:54.160Z,611.2
2022-10-17T11:10:12.305Z,613.1
2022-10-17T11:11:19.535Z,610.5
2022-10-17T11:12:26.824Z,611.3
2022-10-17T11:14:05.562Z,609.6
2022-10-17T11:15:44.281Z,609
2022-10-17T11:17:23.022Z,610.7
2022-10-17T11:19:01.767Z,612.2
2022-10-17T11:20:40.480Z,611.5
2022-10-17T11:22:19.226Z,612.7
2022-10-17T11:23:57.948Z,611.5
2022-10-17T11:25:36.681Z,611.4
2022-10-17T11:27:15.429Z,609.9
2022-10-17T11:28:22.689Z,612.1
2022-10-17T11:31:23.457Z,610.3
2022-10-17T11:34:39.143Z,610.5
2022-10-17T11:35:45.709Z,612.8
2022-10-17T11:36:52.271Z,612.6
2022-10-17T11:37:58.819Z,612.3
2022-10-17T11:39:05.393Z,613.4
2022-10-17T11:40:11.926Z,613
2022-10-17T11:41:18.476Z,614.5
2022-10-17T11:42:25.042Z,612.8
2022-10-17T11:43:31.572Z,614
2022-10-17T11:44:38.141Z,614.5
2022-10-17T11:45:44.678Z,613
2022-10-17T11:46:51.100Z,612.6
2022-10-17T11:47:57.794Z,613.6
2022-10-17T11:49:04.356Z,612.3
2022-10-17T11:50:10.763Z,614.9
2022-10-17T11:51:17.394Z,614.1
2022-10-17T11:52:23.871Z,612.2
2022-10-17T11:53:30.564Z,612.6
2022-10-17T11:54:37.121Z,611.6
2022-10-17T11:55:43.694Z,611.3
2022-10-17T11:56:50.102Z,611.6
2022-10-17T11:57:56.795Z,612.9
2022-10-17T11:59:03.213Z,612.2
2022-10-17T12:00:09.902Z,612.3
2022-10-17T12:01:16.458Z,611.5
2022-10-17T12:02:23.186Z,610.6
2022-10-17T12:03:30.055Z,611.3
2022-10-17T12:04:36.846Z,613.8
2022-10-17T12:05:43.630Z,611.4
2022-10-17T12:06:50.418Z,612.5
2022-10-17T12:07:57.244Z,611.4
2022-10-17T12:09:04.008Z,612.1
2022-10-17T12:10:10.827Z,613.1
2022-10-17T12:11:17.611Z,611.2
2022-10-17T12:12:24.415Z,613.4
2022-10-17T12:13:31.199Z,612
2022-10-17T12:14:37.849Z,612
2022-10-17T12:15:44.709Z,612.3
2022-10-17T12:16:52.084Z,612.9
2022-10-17T12:18:30.813Z,613
2022-10-17T12:20:09.573Z,613.4
2022-10-17T12:21:48.283Z,612.8
2022-10-17T12:23:27.031Z,610.5
2022-10-17T12:25:05.767Z,613.3
2022-10-17T12:26:44.505Z,612.4
2022-10-17T12:28:23.182Z,613.7
2022-10-17T12:30:02.014Z,614.4
2022-10-17T12:31:40.682Z,612.2
2022-10-17T12:33:19.455Z,613
2022-10-17T12:34:58.112Z,614.6
2022-10-17T12:36:36.921Z,614.2
2022-10-17T12:40:44.931Z,614.1
2022-10-17T12:41:51.361Z,615.7
2022-10-17T12:44:00.464Z,616.1
2022-10-17T12:45:06.908Z,615.9
2022-10-17T12:46:13.326Z,616.4
2022-10-17T12:47:19.762Z,615.5
2022-10-17T12:48:26.205Z,615.9
2022-10-17T12:49:32.621Z,614.1
2022-10-17T12:50:39.051Z,614.9
2022-10-17T12:51:45.474Z,613
2022-10-17T12:52:51.792Z,613.3
2022-10-17T12:53:58.378Z,612.8
2022-10-17T12:55:04.820Z,612.4
2022-10-17T12:56:11.208Z,613.4
2022-10-17T12:57:17.528Z,611.9
2022-10-17T12:58:24.100Z,609.6
2022-10-17T12:59:30.427Z,612.4
2022-10-17T13:00:36.930Z,613.1
2022-10-17T13:01:43.426Z,611.6
2022-10-17T13:02:49.875Z,611
2022-10-17T13:03:56.269Z,610.7
2022-10-17T13:05:02.662Z,609.1
2022-10-17T13:06:09.161Z,610.8
2022-10-17T13:07:15.580Z,610
2022-10-17T13:08:21.858Z,608.1
2022-10-17T13:09:28.464Z,607.8
2022-10-17T13:10:35.004Z,607.6
2022-10-17T13:11:41.407Z,608.2
2022-10-17T13:12:48.073Z,606.2
2022-10-17T13:13:54.510Z,608.2
2022-10-17T13:15:01.055Z,607.8
2022-10-17T13:16:07.748Z,608
2022-10-17T13:17:14.155Z,606.9
2022-10-17T13:18:20.852Z,606.8
2022-10-17T13:19:27.315Z,606.9
2022-10-17T13:20:33.944Z,607.7
2022-10-17T13:21:40.500Z,607.3
2022-10-17T13:22:46.903Z,606.6
2022-10-17T13:23:53.603Z,605.7
2022-10-17T13:25:26.664Z,606.9
2022-10-17T13:26:33.475Z,608.8
2022-10-17T13:27:40.130Z,606.7
2022-10-17T13:28:47.040Z,607.1
2022-10-17T13:29:53.832Z,606
2022-10-17T13:31:00.615Z,605.4
2022-10-17T13:32:07.406Z,606.1
2022-10-17T13:33:14.047Z,604.8
2022-10-17T13:34:20.975Z,608.1
2022-10-17T13:35:27.661Z,606.7
2022-10-17T13:36:34.532Z,605.1
2022-10-17T13:37:41.338Z,608.3
2022-10-17T13:38:48.121Z,607
2022-10-17T13:42:06.275Z,608.3
2022-10-17T13:43:44.999Z,607.2
2022-10-17T13:45:23.650Z,609.7
2022-10-17T13:46:30.870Z,607.8
2022-10-17T13:47:38.260Z,607.8
2022-10-17T13:49:16.843Z,608.6
2022-10-17T13:50:55.566Z,610.1
2022-10-17T13:52:34.429Z,606.4
2022-10-17T13:54:13.142Z,609.9
2022-10-17T13:55:51.905Z,607.9
2022-10-17T13:57:30.623Z,609
2022-10-17T13:59:09.348Z,607.5
2022-10-17T14:00:48.078Z,607.9
2022-10-17T14:02:58.845Z,608.3
2022-10-17T14:04:54.206Z,608
2022-10-17T14:06:00.642Z,609.4
2022-10-17T14:07:07.097Z,608.3
2022-10-17T14:08:13.497Z,607.4
2022-10-17T14:09:19.937Z,606.7
2022-10-17T14:10:26.343Z,609.2
2022-10-17T14:11:32.789Z,608
2022-10-17T14:12:39.229Z,608.4
2022-10-17T14:13:45.626Z,606.5
2022-10-17T14:14:52.114Z,607.3
2022-10-17T14:15:58.483Z,606.3
2022-10-17T14:17:04.949Z,605.8
2022-10-17T14:18:11.226Z,606
2022-10-17T14:19:17.790Z,606.5
2022-10-17T14:20:24.190Z,604.8
2022-10-17T14:21:30.630Z,603.8
2022-10-17T14:22:36.957Z,604.9
2022-10-17T14:23:43.405Z,606.5
2022-10-17T14:24:49.916Z,605.2
2022-10-17T14:25:56.220Z,605.2
2022-10-17T14:27:02.727Z,606.9
2022-10-17T14:28:09.232Z,604.6
2022-10-17T14:29:15.623Z,606.6
2022-10-17T14:30:21.966Z,605.6
2022-10-17T14:31:28.386Z,604.2
2022-10-17T14:32:34.952Z,604
2022-10-17T14:33:41.502Z,603.8
2022-10-17T14:34:48.061Z,604
2022-10-17T14:35:54.606Z,606.6
2022-10-17T14:37:01.152Z,603.6
2022-10-17T14:38:07.732Z,604.8
2022-10-17T14:39:14.323Z,605.4
2022-10-17T14:40:20.824Z,604.4
2022-10-17T14:41:27.357Z,602.2
2022-10-17T14:42:33.917Z,604
2022-10-17T14:43:40.468Z,604.2
2022-10-17T14:44:47.027Z,605.6
2022-10-17T14:45:53.588Z,606.4
2022-10-17T14:47:01.383Z,605.4
2022-10-17T14:48:08.176Z,605.2
2022-10-17T14:49:14.968Z,600.7
2022-10-17T14:50:21.770Z,604.3
2022-10-17T14:51:28.556Z,603.8
2022-10-17T14:52:35.342Z,603.5
2022-10-17T14:53:42.145Z,603.9
2022-10-17T14:54:48.946Z,603.7
2022-10-17T14:55:55.757Z,605.9
2022-10-17T14:57:02.510Z,603
2022-10-17T14:58:09.305Z,603.7
2022-10-17T14:59:16.092Z,602.1
2022-10-17T15:00:22.901Z,604.7
2022-10-17T15:03:40.991Z,603.4
2022-10-17T15:04:48.257Z,604.5
2022-10-17T15:05:55.521Z,603.7
2022-10-17T15:07:34.262Z,603.9
2022-10-17T15:09:12.987Z,602.9
2022-10-17T15:10:51.721Z,604.1
2022-10-17T15:12:30.489Z,604.3
2022-10-17T15:14:09.189Z,601.4
2022-10-17T15:15:47.918Z,603.7
2022-10-17T15:17:26.771Z,605.4
2022-10-17T15:19:05.399Z,604.2
2022-10-17T15:20:44.119Z,605.4
2022-10-17T15:21:51.388Z,604.3
2022-10-17T15:24:52.173Z,601.9
2022-10-17T15:28:07.855Z,604.7
2022-10-17T15:29:14.404Z,600.6
2022-10-17T15:30:20.983Z,603.7
2022-10-17T15:31:27.510Z,604
2022-10-17T15:32:34.071Z,603
2022-10-17T15:33:40.611Z,604.6
2022-10-17T15:34:47.166Z,602
2022-10-17T15:35:53.717Z,601.4
2022-10-17T15:37:00.275Z,602.3
2022-10-17T15:38:06.841Z,602.4
2022-10-17T15:39:13.381Z,603
2022-10-17T15:40:19.931Z,603.7
2022-10-17T15:41:26.481Z,602.8
2022-10-17T15:42:33.055Z,604.9
2022-10-17T15:43:39.593Z,600.8
2022-10-17T15:45:52.702Z,602.5
2022-10-17T15:46:59.268Z,604
2022-10-17T15:48:05.798Z,602.2
2022-10-17T15:49:12.367Z,604.4
2022-10-17T15:50:18.912Z,602.6
2022-10-17T15:51:25.468Z,602.2
2022-10-17T15:52:32.011Z,601.1
2022-10-17T15:53:38.571Z,600.9
2022-10-17T15:54:45.125Z,602.7
2022-10-17T15:55:51.914Z,601.7
2022-10-17T15:56:58.704Z,601.8
2022-10-17T15:58:05.493Z,603.1
2022-10-17T15:59:12.281Z,603
2022-10-17T16:00:19.073Z,602.8
2022-10-17T16:01:25.864Z,600.2
2022-10-17T16:02:32.660Z,600.7
2022-10-17T16:03:39.491Z,601.2
2022-10-17T16:04:46.233Z,600.7
2022-10-17T16:05:53.038Z,601.1
2022-10-17T16:06:59.824Z,602.7
2022-10-17T16:08:06.624Z,602.8
2022-10-17T16:09:13.413Z,601.4
2022-10-17T16:10:20.721Z,600.4
2022-10-17T16:11:59.438Z,600
2022-10-17T16:13:38.172Z,601.1
2022-10-17T16:15:16.914Z,599.7
2022-10-17T16:16:55.630Z,601.7
2022-10-17T16:18:34.357Z,603.9
2022-10-17T16:20:13.083Z,602.3
2022-10-17T16:21:51.822Z,601.1
2022-10-17T16:23:30.552Z,602.6
2022-10-17T16:25:09.280Z,602
2022-10-17T16:26:48.016Z,604.8
2022-10-17T16:28:26.751Z,601.9
2022-10-17T16:30:05.494Z,599.4
2022-10-17T16:34:13.483Z,601.3
2022-10-17T16:35:19.961Z,601.2
2022-10-17T16:37:29.034Z,599.3
2022-10-17T16:38:35.465Z,599.7
2022-10-17T16:39:41.904Z,599.4
2022-10-17T16:40:48.331Z,601
2022-10-17T16:41:54.797Z,604
2022-10-17T16:43:01.208Z,601.4
2022-10-17T16:44:07.641Z,603.4
2022-10-17T16:45:14.088Z,599
2022-10-17T16:46:20.503Z,601.6
2022-10-17T16:47:26.945Z,600.8
2022-10-17T16:48:33.373Z,602.2
2022-10-17T16:49:39.815Z,597.8
2022-10-17T16:50:46.241Z,600
2022-10-17T16:51:52.675Z,602.5
2022-10-17T16:52:59.115Z,597.4
2022-10-17T16:54:05.543Z,599.1